Surface observations / UK / EGMC

Quebec | Canada | USA | France | UK | Europe | Elsewhere

Display: Info & Location for EGMC | Help decoding METAR

EGMC SOUTHEND-ON-SEA -- UK
Raw surface observations for station EGMC
EGMC 290320Z 23007KT CAVOK 10/05 Q1011=
EGMC 290250Z 23008KT CAVOK 10/05 Q1011=
EGMC 290150Z 23007KT CAVOK 10/04 Q1011=
EGMC 290050Z 23004KT CAVOK 10/03 Q1012=
EGMC 290020Z 25003KT CAVOK 10/04 Q1012=
EGMC 282350Z 26004KT CAVOK 11/03 Q1013=
EGMC 282320Z 26005KT CAVOK 12/02 Q1013=
EGMC 282250Z 25005KT 9999 FEW048 13/03 Q1013=
EGMC 282220Z 25006KT 9999 SCT048 13/02 Q1013=
EGMC 282150Z 25006KT CAVOK 14/03 Q1013=
EGMC 282050Z 25004KT CAVOK 13/03 Q1013=
EGMC 282020Z 28004KT CAVOK 14/02 Q1013=
EGMC 281950Z 27006KT CAVOK 14/02 Q1013=
EGMC 281920Z 28007KT 260V320 CAVOK 15/02 Q1013=
EGMC 281850Z 28008KT CAVOK 15/01 Q1013=
EGMC 281820Z 28009KT 250V330 CAVOK 16/01 Q1013=
EGMC 281750Z 28009KT 260V330 CAVOK 16/01 Q1013=
EGMC 281720Z 28008KT 250V320 CAVOK 16/01 Q1013=
EGMC 281650Z 28010KT 250V320 CAVOK 17/01 Q1013=
EGMC 281620Z 27013KT CAVOK 17/01 Q1013=
EGMC 281550Z 25012KT 9999 FEW045 17/01 Q1013=
EGMC 281520Z 26014KT CAVOK 17/01 Q1013=
EGMC 281450Z 27013KT 240V310 CAVOK 18/02 Q1014=
EGMC 281420Z 27010KT 240V320 CAVOK 17/02 Q1014=
EGMC 281350Z 27011KT CAVOK 16/02 Q1014=
EGMC 281320Z 28012KT 250V330 CAVOK 16/01 Q1014=
EGMC 281250Z 28012KT 240V330 CAVOK 18/02 Q1014=
EGMC 281220Z 27012KT 240V300 CAVOK 16/02 Q1014=
EGMC 281150Z 27013KT 240V310 CAVOK 17/02 Q1014=
EGMC 281120Z 29011KT 260V320 CAVOK 15/02 Q1014=
EGMC 281050Z 26014KT 9999 FEW048 16/02 Q1014=
EGMC 281020Z 29009KT 250V330 9999 SCT048 15/03 Q1014=
EGMC 280950Z 29011KT 250V330 9999 SCT048 16/03 Q1014=
EGMC 280920Z 28010KT 240V320 9999 SCT048 15/04 Q1014=
EGMC 280850Z 29010KT 260V340 9999 FEW049 16/03 Q1014=
EGMC 280820Z 29010KT 9999 FEW048 15/03 Q1014=
EGMC 280750Z 28013KT 260V320 9999 FEW038 14/02 Q1014=
EGMC 280720Z 30010G21KT 250V330 9999 FEW031 14/04 Q1014=
EGMC 280650Z 29012KT 260V320 9999 FEW031 14/06 Q1013=
EGMC 280620Z 28013KT 9999 FEW025 SCT030 13/07 Q1013=
EGMC 280550Z 26010KT 9999 FEW025 13/08 Q1013=
EGMC 280520Z 24010KT 9999 FEW023 12/08 Q1013=
EGMC 280450Z 24011KT 9999 BKN023 12/08 Q1013=
EGMC 280420Z 24011KT 9999 BKN023 12/07 Q1013=